createdAt,value
2018-12-16T00:00:05.078Z,74.64
2018-12-16T00:00:45.369Z,74.45
2018-12-16T00:01:25.744Z,74.45
2018-12-16T00:02:06.554Z,74.83
2018-12-16T00:02:46.959Z,74.55
2018-12-16T00:03:27.321Z,74.93
2018-12-16T00:05:48.097Z,74.45
2018-12-16T00:06:40.362Z,74.64
2018-12-16T00:07:32.920Z,74.55
2018-12-16T00:08:25.273Z,74.64
2018-12-16T00:10:24.326Z,74.55
2018-12-16T00:11:17.678Z,75.12
2018-12-16T00:12:09.100Z,75.12
2018-12-16T00:13:01.458Z,74.93
2018-12-16T00:13:54.615Z,74.64
2018-12-16T00:14:47.645Z,74.64
2018-12-16T00:15:39.776Z,74.64
2018-12-16T00:16:31.902Z,75.31
2018-12-16T00:17:25.111Z,74.93
2018-12-16T00:18:18.120Z,75.02
2018-12-16T00:19:11.122Z,75.21
2018-12-16T00:20:03.553Z,75.31
2018-12-16T00:20:56.273Z,75.21
2018-12-16T00:21:49.455Z,75.02
2018-12-16T00:22:41.439Z,75.21
2018-12-16T00:23:33.602Z,75.31
2018-12-16T00:24:15.708Z,75.12
2018-12-16T00:24:56.128Z,75.21
2018-12-16T00:25:37.038Z,75.21
2018-12-16T00:26:18.671Z,75.12
2018-12-16T00:26:59.092Z,74.83
2018-12-16T00:27:39.653Z,74.83
2018-12-16T00:28:20.039Z,74.83
2018-12-16T00:29:00.521Z,75.21
2018-12-16T00:29:41.113Z,74.83
2018-12-16T00:30:21.880Z,75.02
2018-12-16T00:31:02.249Z,75.21
2018-12-16T00:31:42.670Z,75.02
2018-12-16T00:32:23.304Z,74.55
2018-12-16T00:33:03.580Z,75.12
2018-12-16T00:33:44.071Z,74.64
2018-12-16T00:34:24.381Z,74.64
2018-12-16T00:35:05.122Z,75.02
2018-12-16T00:35:45.285Z,74.83
2018-12-16T00:36:25.656Z,75.12
2018-12-16T00:37:06.058Z,74.93
2018-12-16T00:37:46.607Z,74.64
2018-12-16T00:38:27.220Z,74.93
2018-12-16T00:39:07.418Z,75.12
2018-12-16T00:39:47.836Z,74.83
2018-12-16T00:40:28.240Z,75.31
2018-12-16T00:41:08.807Z,74.93
2018-12-16T00:41:48.927Z,74.83
2018-12-16T00:42:29.382Z,74.83
2018-12-16T00:43:10.494Z,74.83
2018-12-16T00:43:51.792Z,74.93
2018-12-16T00:44:32.257Z,74.93
2018-12-16T00:45:12.648Z,74.93
2018-12-16T00:45:53.686Z,74.93
2018-12-16T00:46:34.347Z,75.59
2018-12-16T00:47:14.661Z,75.59
2018-12-16T00:47:55.053Z,75.12
2018-12-16T00:48:35.397Z,74.83
2018-12-16T00:49:15.958Z,75.02
2018-12-16T00:49:56.399Z,75.02
2018-12-16T00:50:36.781Z,74.74
2018-12-16T00:51:17.420Z,74.55
2018-12-16T00:51:58.542Z,74.64
2018-12-16T00:52:39.361Z,74.74
2018-12-16T00:53:19.785Z,74.83
2018-12-16T00:54:00.213Z,74.36
2018-12-16T00:54:40.613Z,74.83
2018-12-16T00:55:21.166Z,74.93
2018-12-16T00:56:01.559Z,74.74
2018-12-16T00:56:43.917Z,74.58
2018-12-16T00:57:24.867Z,74.64
2018-12-16T00:58:05.722Z,74.64
2018-12-16T00:58:47.926Z,74.83
2018-12-16T00:59:28.559Z,74.55
2018-12-16T01:00:08.879Z,74.55
2018-12-16T01:00:49.350Z,74.36
2018-12-16T01:01:30.280Z,74.55
2018-12-16T01:02:11.735Z,74.45
2018-12-16T01:02:52.251Z,74.3
2018-12-16T01:03:32.632Z,74.45
2018-12-16T01:04:13.008Z,74.55
2018-12-16T01:04:53.420Z,74.07
2018-12-16T01:05:33.751Z,74.83
2018-12-16T01:06:14.290Z,74.87
2018-12-16T01:06:55.179Z,74.64
2018-12-16T01:07:36.575Z,74.64
2018-12-16T01:08:17.286Z,74.55
2018-12-16T01:08:57.945Z,74.64
2018-12-16T01:09:39.169Z,74.64
2018-12-16T01:10:19.400Z,74.64
2018-12-16T01:11:00.256Z,74.74
2018-12-16T01:11:41.191Z,74.64
2018-12-16T01:12:21.493Z,74.64
2018-12-16T01:13:04.358Z,74.4
2018-12-16T01:13:44.780Z,73.88
2018-12-16T01:14:25.164Z,74.45
2018-12-16T01:15:06.530Z,74.45
2018-12-16T01:15:47.119Z,74.83
2018-12-16T01:16:27.619Z,74.26
2018-12-16T01:17:08.069Z,74.4
2018-12-16T01:17:48.562Z,74.64
2018-12-16T01:18:28.905Z,74.45
2018-12-16T01:19:09.381Z,74.45
2018-12-16T01:19:50.430Z,75.02
2018-12-16T01:20:31.293Z,75.21
2018-12-16T01:21:11.639Z,75.02
2018-12-16T01:21:52.852Z,74.68
2018-12-16T01:22:33.473Z,74.68
2018-12-16T01:23:13.998Z,75.21
2018-12-16T01:23:55.217Z,74.87
2018-12-16T01:24:35.994Z,75.68
2018-12-16T01:25:16.292Z,75.81
2018-12-16T01:25:56.838Z,76.95
2018-12-16T01:26:38.006Z,76.91
2018-12-16T01:27:18.860Z,77.67
2018-12-16T01:27:59.437Z,78.05
2018-12-16T01:28:41.282Z,78.61
2018-12-16T01:29:21.441Z,78.99
2018-12-16T01:30:01.776Z,79.85
2018-12-16T01:30:42.143Z,79.85
2018-12-16T01:31:22.524Z,80.13
2018-12-16T01:32:02.888Z,80.69
2018-12-16T01:32:43.731Z,81.45
2018-12-16T01:33:24.208Z,81.93
2018-12-16T01:34:04.668Z,82.78
2018-12-16T01:34:46.000Z,83.25
2018-12-16T01:35:26.305Z,83.63
2018-12-16T01:36:06.793Z,84.39
2018-12-16T01:36:47.219Z,84.58
2018-12-16T01:37:28.108Z,85.33
2018-12-16T01:38:08.246Z,85.8
2018-12-16T01:38:48.656Z,85.71
2018-12-16T01:39:29.114Z,86.75
2018-12-16T01:40:09.509Z,86.75
2018-12-16T01:40:49.898Z,87.79
2018-12-16T01:41:30.491Z,87.79
2018-12-16T01:42:11.825Z,88.64
2018-12-16T01:42:52.225Z,89.02
2018-12-16T01:43:32.579Z,89.59
2018-12-16T01:44:13.024Z,90.44
2018-12-16T01:44:53.312Z,90.72
2018-12-16T01:45:33.824Z,91.29
2018-12-16T01:46:14.415Z,93.47
2018-12-16T01:46:54.893Z,94.04
2018-12-16T01:47:35.169Z,94.7
2018-12-16T01:48:15.778Z,94.89
2018-12-16T01:48:56.247Z,95.21
2018-12-16T01:49:36.530Z,95.03
2018-12-16T01:50:16.971Z,96.73
2018-12-16T01:50:57.260Z,96.83
2018-12-16T01:51:37.649Z,97.58
2018-12-16T01:52:18.106Z,97.77
2018-12-16T01:52:58.430Z,98.43
2018-12-16T01:53:38.882Z,98.24
2018-12-16T01:54:19.393Z,99.38
2018-12-16T01:54:59.733Z,99.19
2018-12-16T01:55:40.102Z,99.09
2018-12-16T01:56:20.557Z,99.57
2018-12-16T01:57:00.905Z,99.99
2018-12-16T01:57:41.217Z,99.99
2018-12-16T01:58:21.619Z,99.99
2018-12-16T01:59:02.429Z,99.99
2018-12-16T01:59:42.886Z,99.99
2018-12-16T02:00:23.245Z,99.99
2018-12-16T02:01:03.879Z,99.99
2018-12-16T02:01:45.144Z,99.99
2018-12-16T02:02:25.578Z,99.99
2018-12-16T02:03:05.950Z,99.99
2018-12-16T02:03:46.400Z,99.99
2018-12-16T02:04:26.726Z,99.99
2018-12-16T02:05:07.123Z,99.99
2018-12-16T02:05:47.433Z,99.99
2018-12-16T02:06:27.921Z,99.99
2018-12-16T02:07:08.299Z,99.99
2018-12-16T02:07:48.737Z,99.99
2018-12-16T02:08:29.092Z,99.99
2018-12-16T02:09:09.503Z,99.99
2018-12-16T02:09:49.875Z,99.99
2018-12-16T02:10:30.271Z,99.99
2018-12-16T02:11:10.707Z,99.99
2018-12-16T02:11:51.144Z,99.99
2018-12-16T02:12:31.574Z,99.99
2018-12-16T02:13:11.877Z,99.99
2018-12-16T02:13:52.366Z,99.99
2018-12-16T02:14:32.737Z,99.99
2018-12-16T02:15:13.119Z,99.99
2018-12-16T02:15:53.541Z,99.99
2018-12-16T02:16:33.919Z,99.99
2018-12-16T02:17:14.276Z,99.99
2018-12-16T02:17:54.754Z,99.99
2018-12-16T02:18:35.133Z,99.99
2018-12-16T02:19:15.519Z,99.99
2018-12-16T02:19:55.891Z,99.99
2018-12-16T02:20:36.187Z,99.99
2018-12-16T02:21:16.592Z,99.99
2018-12-16T02:21:57.070Z,99.99
2018-12-16T02:22:37.512Z,99.99
2018-12-16T02:23:17.873Z,99.99
2018-12-16T02:23:58.254Z,99.99
2018-12-16T02:24:38.617Z,99.99
2018-12-16T02:25:19.051Z,99.99
2018-12-16T02:25:59.427Z,99.99
2018-12-16T02:26:39.861Z,99.99
2018-12-16T02:27:20.212Z,99.99
2018-12-16T02:28:00.672Z,99.99
2018-12-16T02:28:41.152Z,99.99
2018-12-16T02:29:21.394Z,99.99
2018-12-16T02:30:01.759Z,99.99
2018-12-16T02:30:42.472Z,99.99
2018-12-16T02:31:23.032Z,99.99
2018-12-16T02:32:03.293Z,99.99
2018-12-16T02:32:43.733Z,99.99
2018-12-16T02:33:24.155Z,99.99
2018-12-16T02:34:04.635Z,99.99
2018-12-16T02:34:45.821Z,99.99
2018-12-16T02:35:27.742Z,99.99
2018-12-16T02:36:08.143Z,99.99
2018-12-16T02:36:48.608Z,99.99
2018-12-16T02:37:29.041Z,99.99
2018-12-16T02:38:09.432Z,99.99
2018-12-16T02:38:50.487Z,99.99
2018-12-16T02:39:30.859Z,99.99
2018-12-16T02:40:11.258Z,99.99
2018-12-16T02:40:51.648Z,99.99
2018-12-16T02:41:32.044Z,99.99
2018-12-16T02:42:12.414Z,99.99
2018-12-16T02:42:52.828Z,99.99
2018-12-16T02:43:33.274Z,99.99
2018-12-16T02:44:13.750Z,99.99
2018-12-16T02:44:54.150Z,99.99
2018-12-16T02:45:34.500Z,99.99
2018-12-16T02:46:15.058Z,99.99
2018-12-16T02:46:55.471Z,99.99
2018-12-16T02:47:36.808Z,99.99
2018-12-16T02:48:17.166Z,99.99
2018-12-16T02:48:57.622Z,99.99
2018-12-16T02:49:38.076Z,99.99
2018-12-16T02:50:18.389Z,99.99
2018-12-16T02:50:58.893Z,99.99
2018-12-16T02:51:39.109Z,99.99
2018-12-16T02:52:19.763Z,99.99
2018-12-16T02:53:04.431Z,99.99
2018-12-16T02:53:40.662Z,99.99
2018-12-16T02:54:21.631Z,99.99
2018-12-16T02:55:02.601Z,99.99
2018-12-16T02:55:43.003Z,99.99
2018-12-16T02:56:24.392Z,99.99
2018-12-16T02:57:05.070Z,99.99
2018-12-16T02:57:45.618Z,99.99
2018-12-16T02:58:26.223Z,99.99
2018-12-16T02:59:07.460Z,99.99
2018-12-16T02:59:48.534Z,99.99
2018-12-16T03:00:30.125Z,99.99
2018-12-16T03:01:11.057Z,99.99
2018-12-16T03:01:51.930Z,99.99
2018-12-16T03:02:32.374Z,99.99
2018-12-16T03:03:13.080Z,99.99
2018-12-16T03:03:53.585Z,99.99
2018-12-16T03:04:34.777Z,99.99
2018-12-16T03:05:14.880Z,99.99
2018-12-16T03:05:55.355Z,99.99
2018-12-16T03:06:36.036Z,99.99
2018-12-16T03:07:16.503Z,99.99
2018-12-16T03:07:56.934Z,99.99
2018-12-16T03:08:37.357Z,99.99
2018-12-16T03:09:17.971Z,99.99
2018-12-16T03:09:59.189Z,99.99
2018-12-16T03:10:39.769Z,99.99
2018-12-16T03:11:20.419Z,99.99
2018-12-16T03:12:00.993Z,99.99
2018-12-16T03:12:41.799Z,99.99
2018-12-16T03:13:22.185Z,99.99
2018-12-16T03:14:03.145Z,99.99
2018-12-16T03:14:45.157Z,99.99
2018-12-16T03:15:25.440Z,99.99
2018-12-16T03:16:05.982Z,99.99
2018-12-16T03:16:47.312Z,99.99
2018-12-16T03:17:28.037Z,99.99
2018-12-16T03:18:09.533Z,99.99
2018-12-16T03:18:50.298Z,99.99
2018-12-16T03:19:31.412Z,99.99
2018-12-16T03:20:11.995Z,99.99
2018-12-16T03:20:52.600Z,99.99
2018-12-16T03:21:33.064Z,99.99
2018-12-16T03:22:14.035Z,99.99
2018-12-16T03:22:54.994Z,99.99
2018-12-16T03:23:35.976Z,99.99
2018-12-16T03:24:16.607Z,99.99
2018-12-16T03:24:57.656Z,99.99
2018-12-16T03:25:37.877Z,99.99
2018-12-16T03:26:18.623Z,99.99
2018-12-16T03:26:59.785Z,99.99
2018-12-16T03:27:40.480Z,99.99
2018-12-16T03:28:21.099Z,99.99
2018-12-16T03:29:02.124Z,99.99
2018-12-16T03:29:42.953Z,99.99
2018-12-16T03:30:23.881Z,99.99
2018-12-16T03:31:04.740Z,99.99
2018-12-16T03:31:45.221Z,99.99
2018-12-16T03:32:25.757Z,99.99
2018-12-16T03:33:06.397Z,99.99
2018-12-16T03:33:47.013Z,99.99
2018-12-16T03:34:27.815Z,99.99
2018-12-16T03:35:09.755Z,99.99
2018-12-16T03:35:50.649Z,99.99
2018-12-16T03:36:31.182Z,99.99
2018-12-16T03:37:11.812Z,99.99
2018-12-16T03:37:52.896Z,99.99
2018-12-16T03:38:34.480Z,99.99
2018-12-16T03:39:15.127Z,99.99
2018-12-16T03:39:55.850Z,99.99
2018-12-16T03:40:37.019Z,99.99
2018-12-16T03:41:17.565Z,99.99
2018-12-16T03:41:58.345Z,99.99
2018-12-16T03:42:39.036Z,99.99
2018-12-16T03:43:19.815Z,99.99
2018-12-16T03:44:00.417Z,99.99
2018-12-16T03:44:41.137Z,99.99
2018-12-16T03:45:22.683Z,99.99
2018-12-16T03:46:03.128Z,99.99
2018-12-16T03:46:43.575Z,99.99
2018-12-16T03:47:24.036Z,99.99
2018-12-16T03:48:04.351Z,99.99
2018-12-16T03:48:44.734Z,99.99
2018-12-16T03:49:25.374Z,99.99
2018-12-16T03:50:05.691Z,99.99
2018-12-16T03:50:46.104Z,99.99
2018-12-16T03:51:26.556Z,99.99
2018-12-16T03:52:06.854Z,99.99
2018-12-16T03:52:47.305Z,99.99
2018-12-16T03:53:27.685Z,99.99
2018-12-16T03:54:08.071Z,99.99
2018-12-16T03:54:48.484Z,99.99
2018-12-16T03:55:28.815Z,99.99
2018-12-16T03:56:09.224Z,99.99
2018-12-16T03:56:49.655Z,99.99
2018-12-16T03:57:30.092Z,99.99
2018-12-16T03:58:10.498Z,99.99
2018-12-16T03:58:51.745Z,99.99
2018-12-16T03:59:32.173Z,99.99
2018-12-16T04:00:12.493Z,99.99
2018-12-16T04:00:52.865Z,99.99
2018-12-16T04:01:33.426Z,99.99
2018-12-16T04:02:13.721Z,99.99
2018-12-16T04:02:54.127Z,99.99
2018-12-16T04:03:34.426Z,99.99
2018-12-16T04:04:14.884Z,99.99
2018-12-16T04:04:55.268Z,99.99
2018-12-16T04:05:35.725Z,99.99
2018-12-16T04:06:16.375Z,99.99
2018-12-16T04:06:56.754Z,99.99
2018-12-16T04:07:37.134Z,99.99
2018-12-16T04:08:17.447Z,99.99
2018-12-16T04:08:58.162Z,99.99
2018-12-16T04:09:38.573Z,99.99
2018-12-16T04:10:18.898Z,99.99
2018-12-16T04:10:59.904Z,99.99
2018-12-16T04:11:40.237Z,99.99
2018-12-16T04:12:20.687Z,99.99
2018-12-16T04:13:01.577Z,99.99
2018-12-16T04:13:41.708Z,99.99
2018-12-16T04:14:22.227Z,99.99
2018-12-16T04:15:02.488Z,99.99
2018-12-16T04:15:42.962Z,99.99
2018-12-16T04:16:23.455Z,99.99
2018-12-16T04:17:04.133Z,99.99
2018-12-16T04:17:44.574Z,99.99
2018-12-16T04:18:25.173Z,99.99
2018-12-16T04:19:05.744Z,99.99
2018-12-16T04:19:46.770Z,99.99
2018-12-16T04:20:28.305Z,99.99
2018-12-16T04:21:08.786Z,99.99
2018-12-16T04:21:49.398Z,99.99
2018-12-16T04:22:29.641Z,99.99
2018-12-16T04:23:10.120Z,99.99
2018-12-16T04:23:50.646Z,99.99
2018-12-16T04:24:31.344Z,99.99
2018-12-16T04:25:11.820Z,99.99
2018-12-16T04:25:52.229Z,99.99
2018-12-16T04:26:33.006Z,99.99
2018-12-16T04:27:13.133Z,99.99
2018-12-16T05:06:41.362Z,99.99
2018-12-16T05:07:21.625Z,99.99
2018-12-16T05:08:02.042Z,99.99
2018-12-16T05:08:42.363Z,99.99
2018-12-16T05:09:22.813Z,99.99
2018-12-16T05:11:21.976Z,99.99
2018-12-16T05:12:14.453Z,99.99
2018-12-16T05:13:06.912Z,99.99
2018-12-16T05:13:59.282Z,99.99
2018-12-16T05:14:51.454Z,99.99
2018-12-16T05:15:43.470Z,99.99
2018-12-16T05:16:36.584Z,99.99
2018-12-16T05:17:28.875Z,99.99
2018-12-16T05:18:21.294Z,99.99
2018-12-16T05:19:13.553Z,99.99
2018-12-16T05:20:05.824Z,99.99
2018-12-16T05:20:58.241Z,99.99
2018-12-16T05:21:50.625Z,99.99
2018-12-16T05:22:42.917Z,99.99
2018-12-16T05:23:41.638Z,99.99
2018-12-16T05:24:27.963Z,99.99
2018-12-16T05:25:20.080Z,99.99
2018-12-16T05:26:12.504Z,99.99
2018-12-16T05:27:04.743Z,99.99
2018-12-16T05:27:57.759Z,99.99
2018-12-16T05:28:49.900Z,99.99
2018-12-16T05:29:42.444Z,99.99
2018-12-16T05:30:34.882Z,99.99
2018-12-16T05:31:27.315Z,99.99
2018-12-16T05:32:19.805Z,99.99
2018-12-16T05:33:12.326Z,99.99
2018-12-16T05:34:05.136Z,99.99
2018-12-16T05:34:58.008Z,99.99
2018-12-16T05:35:50.682Z,99.99
2018-12-16T05:36:42.977Z,99.99
2018-12-16T05:37:34.835Z,99.99
2018-12-16T05:38:27.376Z,99.99
2018-12-16T05:39:19.829Z,99.99
2018-12-16T05:40:11.975Z,99.99
2018-12-16T05:41:03.884Z,99.99
2018-12-16T05:41:55.986Z,99.99
2018-12-16T05:42:48.067Z,99.99
2018-12-16T05:43:40.719Z,99.99
2018-12-16T05:44:32.303Z,99.99
2018-12-16T05:45:24.124Z,99.99
2018-12-16T05:46:04.960Z,99.99
2018-12-16T05:46:45.377Z,99.99
2018-12-16T05:47:25.640Z,99.99
2018-12-16T05:48:06.078Z,99.99
2018-12-16T05:48:46.546Z,99.99
2018-12-16T05:49:27.066Z,99.99
2018-12-16T05:50:07.337Z,99.99
2018-12-16T05:50:47.767Z,99.99
2018-12-16T05:51:28.193Z,99.99
2018-12-16T05:52:08.999Z,99.99
2018-12-16T05:52:49.366Z,99.99
2018-12-16T05:53:31.712Z,99.99
2018-12-16T05:54:12.621Z,99.99
2018-12-16T05:54:53.081Z,99.99
2018-12-16T05:55:34.055Z,99.99
2018-12-16T05:56:14.689Z,99.99
2018-12-16T05:56:55.507Z,99.99
2018-12-16T05:57:36.393Z,99.66
2018-12-16T05:58:16.993Z,99.47
2018-12-16T05:58:57.567Z,99.47
2018-12-16T05:59:38.099Z,99.99
2018-12-16T06:00:18.469Z,99.99
2018-12-16T06:00:58.922Z,99.99
2018-12-16T06:01:40.118Z,99.99
2018-12-16T06:02:20.497Z,99.99
2018-12-16T06:03:01.025Z,99.99
2018-12-16T06:03:41.965Z,99.99
2018-12-16T06:04:22.395Z,99.99
2018-12-16T06:05:02.754Z,99.99
2018-12-16T06:05:43.187Z,99.99
2018-12-16T06:06:23.856Z,99.99
2018-12-16T06:07:04.538Z,99.99
2018-12-16T06:07:44.951Z,99.99
2018-12-16T06:08:25.473Z,99.99
2018-12-16T06:09:06.358Z,99.99
2018-12-16T06:09:46.745Z,99.99
2018-12-16T06:10:27.235Z,99.99
2018-12-16T06:11:07.635Z,99.99
2018-12-16T06:11:48.127Z,99.99
2018-12-16T06:12:28.863Z,99.99
2018-12-16T06:13:09.675Z,99.99
2018-12-16T06:13:50.330Z,99.99
2018-12-16T06:14:30.699Z,99.99
2018-12-16T06:15:11.506Z,99.99
2018-12-16T06:15:51.963Z,99.99
2018-12-16T06:16:32.352Z,99.99
2018-12-16T06:17:12.854Z,99.99
2018-12-16T06:17:53.751Z,99.99
2018-12-16T06:18:34.061Z,99.66
2018-12-16T06:19:14.600Z,99.99
2018-12-16T06:19:55.361Z,99.99
2018-12-16T06:20:36.085Z,99.66
2018-12-16T06:21:16.766Z,99.99
2018-12-16T06:21:57.680Z,99.99
2018-12-16T06:22:38.205Z,99.99
2018-12-16T06:23:18.695Z,99.99
2018-12-16T06:23:59.185Z,99.71
2018-12-16T06:24:39.861Z,99.09
2018-12-16T06:25:20.520Z,99.47
2018-12-16T06:26:02.739Z,98.81
2018-12-16T06:26:43.101Z,99
2018-12-16T06:27:23.582Z,99.28
2018-12-16T06:28:04.176Z,98.81
2018-12-16T06:28:44.568Z,99.09
2018-12-16T06:29:25.431Z,98.9
2018-12-16T06:30:05.893Z,99.38
2018-12-16T06:30:46.743Z,99.57
2018-12-16T06:31:28.295Z,99.19
2018-12-16T06:32:08.716Z,99
2018-12-16T06:32:49.267Z,99.52
2018-12-16T06:33:31.748Z,99.9
2018-12-16T06:34:12.642Z,98.86
2018-12-16T06:34:53.004Z,98.39
2018-12-16T06:35:36.422Z,97.82
2018-12-16T06:36:24.629Z,96.97
2018-12-16T06:37:06.055Z,97.06
2018-12-16T06:39:02.374Z,97.72
2018-12-16T06:39:42.884Z,97.82
2018-12-16T06:40:23.298Z,97.82
2018-12-16T06:41:03.681Z,97.53
2018-12-16T06:41:44.089Z,98.01
2018-12-16T06:42:24.450Z,98.2
2018-12-16T06:43:04.863Z,97.82
2018-12-16T06:43:45.237Z,97.34
2018-12-16T06:44:25.614Z,96.97
2018-12-16T06:45:06.214Z,96.12
2018-12-16T06:45:46.482Z,95.74
2018-12-16T06:46:26.880Z,96.12
2018-12-16T06:47:07.258Z,95.64
2018-12-16T06:47:47.654Z,95.36
2018-12-16T06:48:28.039Z,95.83
2018-12-16T06:49:08.603Z,95.64
2018-12-16T06:49:48.962Z,96.97
2018-12-16T06:50:29.337Z,95.74
2018-12-16T06:51:09.874Z,95.36
2018-12-16T06:51:50.363Z,94.13
2018-12-16T06:52:30.721Z,95.07
2018-12-16T06:53:11.109Z,95.07
2018-12-16T06:53:51.501Z,95.93
2018-12-16T06:54:31.910Z,96.59
2018-12-16T06:55:12.336Z,97.06
2018-12-16T06:55:52.724Z,98.01
2018-12-16T06:56:33.112Z,98.01
2018-12-16T06:57:13.475Z,97.34
2018-12-16T06:57:53.861Z,96.88
2018-12-16T06:58:34.276Z,96.88
2018-12-16T06:59:14.640Z,96.88
2018-12-16T07:01:12.054Z,95.93
2018-12-16T07:01:52.588Z,95.26
2018-12-16T07:02:32.934Z,95.45
2018-12-16T07:03:13.295Z,95.83
2018-12-16T07:03:53.750Z,95.45
2018-12-16T07:04:34.118Z,95.64
2018-12-16T07:05:14.482Z,94.6
2018-12-16T07:05:54.871Z,94.42
2018-12-16T07:06:35.290Z,96.12
2018-12-16T07:07:15.653Z,95.83
2018-12-16T07:07:56.078Z,96.12
2018-12-16T07:08:36.589Z,96.31
2018-12-16T07:09:16.886Z,96.97
2018-12-16T07:09:57.293Z,96.78
2018-12-16T07:10:37.718Z,97.16
2018-12-16T07:11:18.064Z,96.88
2018-12-16T07:11:58.446Z,97.44
2018-12-16T07:12:38.831Z,97.25
2018-12-16T07:13:19.226Z,97.72
2018-12-16T07:13:59.640Z,98.48
2018-12-16T07:14:39.984Z,98.01
2018-12-16T07:15:20.420Z,98.29
2018-12-16T07:16:00.846Z,98.48
2018-12-16T07:16:41.305Z,98.01
2018-12-16T07:17:21.628Z,96.97
2018-12-16T07:18:02.025Z,96.97
2018-12-16T07:18:42.449Z,95.93
2018-12-16T07:19:23.187Z,96.88
2018-12-16T07:20:03.575Z,97.25
2018-12-16T07:20:43.974Z,96.4
2018-12-16T07:21:24.342Z,96.21
2018-12-16T07:22:04.708Z,96.21
2018-12-16T07:22:45.063Z,95.93
2018-12-16T07:23:25.464Z,97.16
2018-12-16T07:24:09.110Z,97.06
2018-12-16T07:26:23.393Z,97.91
2018-12-16T07:27:04.495Z,97.44
2018-12-16T07:27:44.874Z,98.58
2018-12-16T07:28:25.281Z,98.01
2018-12-16T07:29:05.664Z,97.82
2018-12-16T07:29:46.065Z,97.53
2018-12-16T07:30:26.490Z,98.01
2018-12-16T07:31:06.823Z,97.63
2018-12-16T07:32:54.173Z,96.97
2018-12-16T07:33:34.576Z,97.06
2018-12-16T07:34:15.007Z,96.88
2018-12-16T07:34:55.470Z,95.64
2018-12-16T07:35:35.829Z,96.21
2018-12-16T07:36:16.229Z,95.93
2018-12-16T07:36:56.697Z,96.12
2018-12-16T07:37:37.017Z,96.12
2018-12-16T07:38:17.398Z,97.63
2018-12-16T07:38:57.807Z,97.16
2018-12-16T07:39:38.171Z,95.64
2018-12-16T07:40:18.557Z,95.93
2018-12-16T07:40:58.984Z,96.78
2018-12-16T07:41:39.356Z,96.69
2018-12-16T07:42:19.717Z,95.59
2018-12-16T07:43:00.092Z,94.6
2018-12-16T07:43:40.505Z,94.13
2018-12-16T07:44:20.906Z,94.37
2018-12-16T07:45:01.348Z,94.46
2018-12-16T07:45:41.706Z,94.65
2018-12-16T07:46:22.145Z,92.94
2018-12-16T07:47:02.497Z,92.76
2018-12-16T07:47:42.880Z,93.04
2018-12-16T07:48:23.335Z,92.85
2018-12-16T07:49:03.693Z,92.29
2018-12-16T07:49:44.100Z,91.43
2018-12-16T07:50:24.540Z,92.29
2018-12-16T07:51:04.930Z,92.66
2018-12-16T07:51:45.358Z,92.57
2018-12-16T07:52:25.734Z,92.38
2018-12-16T07:53:06.102Z,92.19
2018-12-16T07:53:46.527Z,92.66
2018-12-16T07:54:27.208Z,91.62
2018-12-16T07:55:07.580Z,90.67
2018-12-16T07:55:48.028Z,90.11
2018-12-16T07:56:28.575Z,89.92
2018-12-16T07:57:08.840Z,90.11
2018-12-16T07:57:49.230Z,91.72
2018-12-16T07:58:29.632Z,91.05
2018-12-16T07:59:10.010Z,90.81
2018-12-16T07:59:50.422Z,90.25
2018-12-16T08:00:30.789Z,89.49
2018-12-16T08:01:11.153Z,90.34
2018-12-16T08:01:51.541Z,89.58
2018-12-16T08:02:31.930Z,88.54
2018-12-16T08:03:12.317Z,88.73
2018-12-16T08:03:52.689Z,88.82
2018-12-16T08:04:33.079Z,90.15
2018-12-16T08:05:13.478Z,89.2
2018-12-16T08:05:53.851Z,89.49
2018-12-16T08:06:34.270Z,89.01
2018-12-16T08:07:14.620Z,87.69
2018-12-16T08:07:55.019Z,88.17
2018-12-16T08:08:35.401Z,89.25
2018-12-16T08:09:15.773Z,90.15
2018-12-16T08:09:56.165Z,91.1
2018-12-16T08:10:36.568Z,90.44
2018-12-16T08:11:17.032Z,90.06
2018-12-16T08:11:57.452Z,89.3
2018-12-16T08:12:37.828Z,89.44
2018-12-16T08:13:18.258Z,90.72
2018-12-16T08:13:58.623Z,90.72
2018-12-16T08:14:39.052Z,90.25
2018-12-16T08:15:19.450Z,91.1
2018-12-16T08:15:59.861Z,90.06
2018-12-16T08:16:40.224Z,90.25
2018-12-16T08:17:20.601Z,89.87
2018-12-16T08:18:00.979Z,90.06
2018-12-16T08:18:41.411Z,88.73
2018-12-16T08:19:21.792Z,88.87
2018-12-16T08:20:02.190Z,87.83
2018-12-16T08:20:42.580Z,87.54
2018-12-16T08:21:22.950Z,87.07
2018-12-16T08:22:03.388Z,86.88
2018-12-16T08:22:43.768Z,86.69
2018-12-16T08:23:24.117Z,86.41
2018-12-16T08:24:04.561Z,87.07
2018-12-16T08:24:44.943Z,87.64
2018-12-16T08:25:25.342Z,87.54
2018-12-16T08:26:05.675Z,86.41
2018-12-16T08:26:46.077Z,86.79
2018-12-16T08:27:26.465Z,86.69
2018-12-16T08:28:06.838Z,87.54
2018-12-16T08:28:47.251Z,86.5
2018-12-16T08:29:27.621Z,86.12
2018-12-16T08:30:08.038Z,84.99
2018-12-16T08:30:48.415Z,84.89
2018-12-16T08:31:28.838Z,85.65
2018-12-16T08:32:09.289Z,86.6
2018-12-16T08:32:49.658Z,87.26
2018-12-16T08:33:30.045Z,87.73
2018-12-16T08:34:10.435Z,87.54
2018-12-16T08:34:50.804Z,85.84
2018-12-16T08:35:31.171Z,85.17
2018-12-16T08:36:11.612Z,85.36
2018-12-16T08:36:51.960Z,85.08
2018-12-16T08:37:32.386Z,85.74
2018-12-16T08:38:12.739Z,85.55
2018-12-16T08:38:53.122Z,85.65
2018-12-16T08:39:33.536Z,85.65
2018-12-16T08:40:13.892Z,84.8
2018-12-16T08:40:54.277Z,84.8
2018-12-16T08:41:34.684Z,84.61
2018-12-16T08:42:15.075Z,85.17
2018-12-16T08:42:55.443Z,84.7
2018-12-16T08:43:35.822Z,85.55
2018-12-16T08:44:16.212Z,85.36
2018-12-16T08:44:56.593Z,85.46
2018-12-16T08:45:36.983Z,86.41
2018-12-16T08:46:17.383Z,86.22
2018-12-16T08:46:57.779Z,85.46
2018-12-16T08:47:38.190Z,84.7
2018-12-16T08:48:18.549Z,83.85
2018-12-16T08:48:58.968Z,84.7
2018-12-16T08:49:39.323Z,84.7
2018-12-16T08:50:19.704Z,84.89
2018-12-16T08:51:00.110Z,83.42
2018-12-16T08:51:40.465Z,82.81
2018-12-16T08:52:20.890Z,83.47
2018-12-16T08:53:01.281Z,83.28
2018-12-16T08:53:41.776Z,84.13
2018-12-16T08:54:22.114Z,84.61
2018-12-16T08:55:02.495Z,83.66
2018-12-16T08:55:42.856Z,83.47
2018-12-16T08:56:23.276Z,83.66
2018-12-16T08:57:03.657Z,84.89
2018-12-16T08:57:44.004Z,85.65
2018-12-16T08:58:24.410Z,86.69
2018-12-16T08:59:04.817Z,85.74
2018-12-16T08:59:45.279Z,86.31
2018-12-16T09:00:25.560Z,85.65
2018-12-16T09:02:12.824Z,85.17
2018-12-16T09:02:53.251Z,85.36
2018-12-16T09:03:33.661Z,85.17
2018-12-16T09:04:14.029Z,84.99
2018-12-16T09:04:54.404Z,85.55
2018-12-16T09:05:34.804Z,85.17
2018-12-16T09:06:15.161Z,85.55
2018-12-16T09:06:55.551Z,85.03
2018-12-16T09:07:37.339Z,84.65
2018-12-16T09:08:16.327Z,83.61
2018-12-16T09:08:56.723Z,83.51
2018-12-16T09:09:37.117Z,82.81
2018-12-16T09:10:17.503Z,83.09
2018-12-16T09:10:57.881Z,83.37
2018-12-16T09:11:38.277Z,83.56
2018-12-16T09:12:19.480Z,83.66
2018-12-16T09:12:59.027Z,83.75
2018-12-16T09:13:39.426Z,84.04
2018-12-16T09:14:19.816Z,84.61
2018-12-16T09:15:00.163Z,84.7
2018-12-16T09:15:40.582Z,85.46
2018-12-16T09:16:20.982Z,85.41
2018-12-16T09:17:01.398Z,84.17
2018-12-16T09:17:41.785Z,83.61
2018-12-16T09:19:39.466Z,82.37
2018-12-16T09:20:21.089Z,81.9
2018-12-16T09:21:02.467Z,81.33
2018-12-16T09:21:44.489Z,80.67
2018-12-16T09:22:24.905Z,80.29
2018-12-16T09:23:05.319Z,79.91
2018-12-16T09:23:46.618Z,80.19
2018-12-16T09:24:26.996Z,81.24
2018-12-16T09:26:41.516Z,81.24
2018-12-16T09:27:21.926Z,80.76
2018-12-16T09:28:02.366Z,80.95
2018-12-16T09:28:42.772Z,80.76
2018-12-16T09:29:23.192Z,81.33
2018-12-16T09:30:03.592Z,80.86
2018-12-16T09:30:43.958Z,81.05
2018-12-16T09:31:24.379Z,80.86
2018-12-16T09:32:04.753Z,80.57
2018-12-16T09:32:45.156Z,80.76
2018-12-16T09:33:25.522Z,81.43
2018-12-16T09:34:05.891Z,81.33
2018-12-16T09:34:46.295Z,80.67
2018-12-16T09:35:26.687Z,80.86
2018-12-16T09:36:07.073Z,80.99
2018-12-16T09:36:47.441Z,80.24
2018-12-16T09:37:27.848Z,79.15
2018-12-16T09:38:08.221Z,80.43
2018-12-16T09:38:48.650Z,79.66
2018-12-16T09:39:29.062Z,79.47
2018-12-16T09:40:09.431Z,79.47
2018-12-16T09:40:49.818Z,79.85
2018-12-16T09:41:30.201Z,79.1
2018-12-16T09:42:10.619Z,79.1
2018-12-16T09:42:51.001Z,78.53
2018-12-16T09:43:31.382Z,78.91
2018-12-16T09:44:11.752Z,79.38
2018-12-16T09:44:52.157Z,79.38
2018-12-16T09:46:49.641Z,78.53
2018-12-16T09:47:30.036Z,77.86